sensor_id;sensor_type;location;lat;lon;timestamp;P1;durP1;ratioP1;P2;durP2;ratioP2
14789;SDS011;7486;51.010;10.366;2022-10-31T00:00:47;8.55;;;3.92;;
14789;SDS011;7486;51.010;10.366;2022-10-31T00:03:14;6.60;;;4.40;;
14789;SDS011;7486;51.010;10.366;2022-10-31T00:05:42;6.00;;;3.90;;
14789;SDS011;7486;51.010;10.366;2022-10-31T00:08:09;6.43;;;3.92;;
14789;SDS011;7486;51.010;10.366;2022-10-31T00:10:39;7.78;;;4.20;;
14789;SDS011;7486;51.010;10.366;2022-10-31T00:13:07;6.22;;;4.28;;
14789;SDS011;7486;51.010;10.366;2022-10-31T00:15:35;7.18;;;3.33;;
14789;SDS011;7486;51.010;10.366;2022-10-31T00:18:03;6.43;;;3.50;;
14789;SDS011;7486;51.010;10.366;2022-10-31T00:20:31;5.32;;;3.60;;
14789;SDS011;7486;51.010;10.366;2022-10-31T00:23:00;7.20;;;4.18;;
14789;SDS011;7486;51.010;10.366;2022-10-31T00:25:28;4.78;;;3.47;;
14789;SDS011;7486;51.010;10.366;2022-10-31T00:27:59;11.23;;;3.88;;
14789;SDS011;7486;51.010;10.366;2022-10-31T00:30:26;7.80;;;3.90;;
14789;SDS011;7486;51.010;10.366;2022-10-31T00:32:52;8.85;;;4.13;;
14789;SDS011;7486;51.010;10.366;2022-10-31T00:35:19;7.22;;;3.70;;
14789;SDS011;7486;51.010;10.366;2022-10-31T00:37:45;8.85;;;3.45;;
14789;SDS011;7486;51.010;10.366;2022-10-31T00:40:12;8.35;;;4.18;;
14789;SDS011;7486;51.010;10.366;2022-10-31T00:42:39;7.25;;;4.07;;
14789;SDS011;7486;51.010;10.366;2022-10-31T00:45:09;6.30;;;3.90;;
14789;SDS011;7486;51.010;10.366;2022-10-31T00:47:37;5.55;;;3.80;;
14789;SDS011;7486;51.010;10.366;2022-10-31T00:50:04;8.88;;;4.13;;
14789;SDS011;7486;51.010;10.366;2022-10-31T00:52:31;6.95;;;3.47;;
14789;SDS011;7486;51.010;10.366;2022-10-31T00:54:58;6.22;;;4.13;;
14789;SDS011;7486;51.010;10.366;2022-10-31T00:57:25;7.95;;;4.38;;
14789;SDS011;7486;51.010;10.366;2022-10-31T00:59:52;7.35;;;4.30;;
14789;SDS011;7486;51.010;10.366;2022-10-31T01:02:18;6.88;;;3.85;;
14789;SDS011;7486;51.010;10.366;2022-10-31T01:05:09;7.65;;;4.25;;
14789;SDS011;7486;51.010;10.366;2022-10-31T01:07:37;11.80;;;3.70;;
14789;SDS011;7486;51.010;10.366;2022-10-31T01:10:07;7.00;;;3.70;;
14789;SDS011;7486;51.010;10.366;2022-10-31T01:12:39;6.82;;;3.70;;
14789;SDS011;7486;51.010;10.366;2022-10-31T01:15:07;7.25;;;4.05;;
14789;SDS011;7486;51.010;10.366;2022-10-31T01:17:35;5.65;;;3.78;;
14789;SDS011;7486;51.010;10.366;2022-10-31T01:20:02;5.28;;;3.70;;
14789;SDS011;7486;51.010;10.366;2022-10-31T01:22:30;5.35;;;3.90;;
14789;SDS011;7486;51.010;10.366;2022-10-31T01:24:59;5.15;;;3.55;;
14789;SDS011;7486;51.010;10.366;2022-10-31T01:27:26;9.68;;;3.80;;
14789;SDS011;7486;51.010;10.366;2022-10-31T01:29:53;8.27;;;3.88;;
14789;SDS011;7486;51.010;10.366;2022-10-31T01:32:19;7.07;;;3.92;;
14789;SDS011;7486;51.010;10.366;2022-10-31T01:34:46;8.05;;;3.60;;
14789;SDS011;7486;51.010;10.366;2022-10-31T01:37:13;4.20;;;3.20;;
14789;SDS011;7486;51.010;10.366;2022-10-31T01:39:39;4.60;;;3.50;;
14789;SDS011;7486;51.010;10.366;2022-10-31T01:42:06;7.13;;;3.78;;
14789;SDS011;7486;51.010;10.366;2022-10-31T01:47:00;6.32;;;3.92;;
14789;SDS011;7486;51.010;10.366;2022-10-31T01:49:34;9.65;;;4.05;;
14789;SDS011;7486;51.010;10.366;2022-10-31T01:54:39;4.05;;;3.53;;
14789;SDS011;7486;51.010;10.366;2022-10-31T01:57:10;6.07;;;3.70;;
14789;SDS011;7486;51.010;10.366;2022-10-31T01:59:40;6.82;;;4.20;;
14789;SDS011;7486;51.010;10.366;2022-10-31T02:02:10;9.02;;;4.00;;
14789;SDS011;7486;51.010;10.366;2022-10-31T02:04:39;7.80;;;4.50;;
14789;SDS011;7486;51.010;10.366;2022-10-31T02:07:16;6.78;;;4.20;;
14789;SDS011;7486;51.010;10.366;2022-10-31T02:09:47;8.95;;;4.22;;
14789;SDS011;7486;51.010;10.366;2022-10-31T02:12:16;7.38;;;4.40;;
14789;SDS011;7486;51.010;10.366;2022-10-31T02:14:43;9.38;;;4.13;;
14789;SDS011;7486;51.010;10.366;2022-10-31T02:17:10;6.65;;;4.38;;
14789;SDS011;7486;51.010;10.366;2022-10-31T02:20:01;6.55;;;4.47;;
14789;SDS011;7486;51.010;10.366;2022-10-31T02:28:19;6.82;;;3.55;;
14789;SDS011;7486;51.010;10.366;2022-10-31T02:31:03;7.03;;;4.30;;
14789;SDS011;7486;51.010;10.366;2022-10-31T02:33:42;8.18;;;4.25;;
14789;SDS011;7486;51.010;10.366;2022-10-31T02:36:17;6.38;;;4.05;;
14789;SDS011;7486;51.010;10.366;2022-10-31T02:44:41;9.88;;;4.40;;
14789;SDS011;7486;51.010;10.366;2022-10-31T02:47:16;7.47;;;4.40;;
14789;SDS011;7486;51.010;10.366;2022-10-31T02:52:23;9.63;;;4.30;;
14789;SDS011;7486;51.010;10.366;2022-10-31T02:54:51;5.65;;;4.10;;
14789;SDS011;7486;51.010;10.366;2022-10-31T02:57:20;6.43;;;4.30;;
14789;SDS011;7486;51.010;10.366;2022-10-31T02:59:55;9.77;;;4.60;;
14789;SDS011;7486;51.010;10.366;2022-10-31T03:11:03;7.15;;;4.35;;
14789;SDS011;7486;51.010;10.366;2022-10-31T03:13:45;7.50;;;4.22;;
14789;SDS011;7486;51.010;10.366;2022-10-31T03:16:22;7.90;;;4.65;;
14789;SDS011;7486;51.010;10.366;2022-10-31T03:21:27;8.68;;;4.45;;
14789;SDS011;7486;51.010;10.366;2022-10-31T03:24:00;10.02;;;4.78;;
14789;SDS011;7486;51.010;10.366;2022-10-31T03:26:28;7.95;;;4.25;;
14789;SDS011;7486;51.010;10.366;2022-10-31T03:29:04;7.57;;;4.30;;
14789;SDS011;7486;51.010;10.366;2022-10-31T03:31:38;12.38;;;5.35;;
14789;SDS011;7486;51.010;10.366;2022-10-31T03:34:12;8.18;;;4.85;;
14789;SDS011;7486;51.010;10.366;2022-10-31T03:36:40;12.00;;;5.35;;
14789;SDS011;7486;51.010;10.366;2022-10-31T03:39:10;7.68;;;5.03;;
14789;SDS011;7486;51.010;10.366;2022-10-31T03:41:43;7.53;;;3.95;;
14789;SDS011;7486;51.010;10.366;2022-10-31T03:44:16;7.38;;;4.43;;
14789;SDS011;7486;51.010;10.366;2022-10-31T03:46:52;9.95;;;4.20;;
14789;SDS011;7486;51.010;10.366;2022-10-31T03:49:20;7.65;;;4.55;;
14789;SDS011;7486;51.010;10.366;2022-10-31T03:54:55;9.13;;;4.28;;
14789;SDS011;7486;51.010;10.366;2022-10-31T03:57:37;8.40;;;4.65;;
14789;SDS011;7486;51.010;10.366;2022-10-31T04:00:11;9.55;;;5.25;;
14789;SDS011;7486;51.010;10.366;2022-10-31T04:02:47;9.38;;;4.95;;
14789;SDS011;7486;51.010;10.366;2022-10-31T04:05:18;9.00;;;5.70;;
14789;SDS011;7486;51.010;10.366;2022-10-31T04:07:47;8.40;;;4.82;;
14789;SDS011;7486;51.010;10.366;2022-10-31T04:10:19;8.73;;;5.47;;
14789;SDS011;7486;51.010;10.366;2022-10-31T04:12:53;9.10;;;4.88;;
14789;SDS011;7486;51.010;10.366;2022-10-31T04:15:32;8.90;;;5.25;;
14789;SDS011;7486;51.010;10.366;2022-10-31T04:18:01;9.07;;;5.22;;
14789;SDS011;7486;51.010;10.366;2022-10-31T04:20:32;6.70;;;4.80;;
14789;SDS011;7486;51.010;10.366;2022-10-31T04:23:00;9.65;;;5.40;;
14789;SDS011;7486;51.010;10.366;2022-10-31T04:25:29;7.15;;;5.18;;
14789;SDS011;7486;51.010;10.366;2022-10-31T04:27:58;7.93;;;5.50;;
14789;SDS011;7486;51.010;10.366;2022-10-31T04:30:25;6.07;;;4.32;;
14789;SDS011;7486;51.010;10.366;2022-10-31T04:32:54;7.90;;;5.05;;
14789;SDS011;7486;51.010;10.366;2022-10-31T04:35:22;9.43;;;5.23;;
14789;SDS011;7486;51.010;10.366;2022-10-31T04:37:48;6.55;;;5.18;;
14789;SDS011;7486;51.010;10.366;2022-10-31T04:40:16;8.73;;;5.00;;
14789;SDS011;7486;51.010;10.366;2022-10-31T04:42:45;7.65;;;4.80;;
14789;SDS011;7486;51.010;10.366;2022-10-31T04:45:12;8.18;;;5.07;;
14789;SDS011;7486;51.010;10.366;2022-10-31T04:47:47;10.38;;;5.55;;
14789;SDS011;7486;51.010;10.366;2022-10-31T04:50:13;8.43;;;4.90;;
14789;SDS011;7486;51.010;10.366;2022-10-31T04:52:42;6.93;;;5.10;;
14789;SDS011;7486;51.010;10.366;2022-10-31T04:55:12;6.38;;;4.97;;
14789;SDS011;7486;51.010;10.366;2022-10-31T04:57:58;8.50;;;5.30;;
14789;SDS011;7486;51.010;10.366;2022-10-31T05:00:26;9.85;;;5.43;;
14789;SDS011;7486;51.010;10.366;2022-10-31T05:02:54;7.93;;;4.72;;
14789;SDS011;7486;51.010;10.366;2022-10-31T05:05:26;9.33;;;4.67;;
14789;SDS011;7486;51.010;10.366;2022-10-31T05:07:56;10.67;;;4.90;;
14789;SDS011;7486;51.010;10.366;2022-10-31T05:10:25;8.67;;;5.07;;
14789;SDS011;7486;51.010;10.366;2022-10-31T05:12:57;7.73;;;4.60;;
14789;SDS011;7486;51.010;10.366;2022-10-31T05:15:27;7.93;;;5.07;;
14789;SDS011;7486;51.010;10.366;2022-10-31T05:18:13;10.57;;;4.90;;
14789;SDS011;7486;51.010;10.366;2022-10-31T05:20:58;6.40;;;4.83;;
14789;SDS011;7486;51.010;10.366;2022-10-31T05:23:35;6.00;;;4.97;;
14789;SDS011;7486;51.010;10.366;2022-10-31T05:26:03;8.40;;;4.83;;
14789;SDS011;7486;51.010;10.366;2022-10-31T05:28:32;9.13;;;4.70;;
14789;SDS011;7486;51.010;10.366;2022-10-31T05:30:58;8.30;;;4.90;;
14789;SDS011;7486;51.010;10.366;2022-10-31T05:33:25;7.27;;;4.73;;
14789;SDS011;7486;51.010;10.366;2022-10-31T05:36:10;6.30;;;4.50;;
14789;SDS011;7486;51.010;10.366;2022-10-31T05:38:55;10.90;;;4.77;;
14789;SDS011;7486;51.010;10.366;2022-10-31T05:41:24;10.53;;;5.40;;
14789;SDS011;7486;51.010;10.366;2022-10-31T05:43:58;6.03;;;4.63;;
14789;SDS011;7486;51.010;10.366;2022-10-31T05:46:27;7.07;;;4.70;;
14789;SDS011;7486;51.010;10.366;2022-10-31T05:49:32;8.10;;;4.10;;
14789;SDS011;7486;51.010;10.366;2022-10-31T05:52:18;6.00;;;4.30;;
14789;SDS011;7486;51.010;10.366;2022-10-31T05:54:52;4.93;;;3.90;;
14789;SDS011;7486;51.010;10.366;2022-10-31T05:57:19;5.23;;;3.90;;
14789;SDS011;7486;51.010;10.366;2022-10-31T05:59:45;5.47;;;3.90;;
14789;SDS011;7486;51.010;10.366;2022-10-31T06:02:19;8.07;;;4.20;;
14789;SDS011;7486;51.010;10.366;2022-10-31T06:05:05;6.67;;;4.87;;
14789;SDS011;7486;51.010;10.366;2022-10-31T06:07:32;7.67;;;5.00;;
14789;SDS011;7486;51.010;10.366;2022-10-31T06:10:00;7.97;;;4.40;;
14789;SDS011;7486;51.010;10.366;2022-10-31T06:12:27;8.80;;;4.57;;
14789;SDS011;7486;51.010;10.366;2022-10-31T06:15:16;5.93;;;4.37;;
14789;SDS011;7486;51.010;10.366;2022-10-31T06:18:05;8.33;;;4.80;;
14789;SDS011;7486;51.010;10.366;2022-10-31T06:20:35;6.57;;;4.53;;
14789;SDS011;7486;51.010;10.366;2022-10-31T06:23:03;5.83;;;4.50;;
14789;SDS011;7486;51.010;10.366;2022-10-31T06:25:32;5.80;;;4.17;;
14789;SDS011;7486;51.010;10.366;2022-10-31T06:27:58;7.00;;;4.60;;
14789;SDS011;7486;51.010;10.366;2022-10-31T06:30:38;10.27;;;5.70;;
14789;SDS011;7486;51.010;10.366;2022-10-31T06:33:04;6.10;;;5.07;;
14789;SDS011;7486;51.010;10.366;2022-10-31T06:35:34;7.17;;;4.50;;
14789;SDS011;7486;51.010;10.366;2022-10-31T06:38:01;9.77;;;5.20;;
14789;SDS011;7486;51.010;10.366;2022-10-31T06:40:40;6.10;;;4.37;;
14789;SDS011;7486;51.010;10.366;2022-10-31T06:43:30;6.83;;;5.00;;
14789;SDS011;7486;51.010;10.366;2022-10-31T06:46:22;7.93;;;5.10;;
14789;SDS011;7486;51.010;10.366;2022-10-31T06:49:09;7.10;;;5.17;;
14789;SDS011;7486;51.010;10.366;2022-10-31T06:51:41;7.23;;;4.83;;
14789;SDS011;7486;51.010;10.366;2022-10-31T06:54:08;4.97;;;4.37;;
14789;SDS011;7486;51.010;10.366;2022-10-31T06:56:35;8.73;;;5.13;;
14789;SDS011;7486;51.010;10.366;2022-10-31T06:59:02;5.70;;;4.80;;
14789;SDS011;7486;51.010;10.366;2022-10-31T07:01:52;7.60;;;5.23;;
14789;SDS011;7486;51.010;10.366;2022-10-31T07:04:19;7.43;;;5.23;;
14789;SDS011;7486;51.010;10.366;2022-10-31T07:06:46;7.93;;;4.50;;
14789;SDS011;7486;51.010;10.366;2022-10-31T07:09:17;9.10;;;5.47;;
14789;SDS011;7486;51.010;10.366;2022-10-31T07:11:44;7.63;;;5.07;;
14789;SDS011;7486;51.010;10.366;2022-10-31T07:14:11;7.13;;;5.33;;
14789;SDS011;7486;51.010;10.366;2022-10-31T07:16:38;7.00;;;5.40;;
14789;SDS011;7486;51.010;10.366;2022-10-31T07:19:05;9.23;;;6.30;;
14789;SDS011;7486;51.010;10.366;2022-10-31T07:21:32;7.73;;;5.80;;
14789;SDS011;7486;51.010;10.366;2022-10-31T07:24:00;6.33;;;4.97;;
14789;SDS011;7486;51.010;10.366;2022-10-31T07:26:55;7.95;;;5.55;;
14789;SDS011;7486;51.010;10.366;2022-10-31T07:29:23;9.07;;;5.73;;
14789;SDS011;7486;51.010;10.366;2022-10-31T07:31:50;6.83;;;5.63;;
14789;SDS011;7486;51.010;10.366;2022-10-31T07:34:23;8.20;;;6.90;;
14789;SDS011;7486;51.010;10.366;2022-10-31T07:37:19;8.90;;;6.57;;
14789;SDS011;7486;51.010;10.366;2022-10-31T07:39:47;7.87;;;6.10;;
14789;SDS011;7486;51.010;10.366;2022-10-31T07:42:13;11.00;;;6.53;;
14789;SDS011;7486;51.010;10.366;2022-10-31T07:44:43;7.47;;;6.60;;
14789;SDS011;7486;51.010;10.366;2022-10-31T07:47:28;7.60;;;5.80;;
14789;SDS011;7486;51.010;10.366;2022-10-31T07:50:14;11.30;;;6.07;;
14789;SDS011;7486;51.010;10.366;2022-10-31T07:53:18;8.38;;;5.90;;
14789;SDS011;7486;51.010;10.366;2022-10-31T07:56:07;10.50;;;6.50;;
14789;SDS011;7486;51.010;10.366;2022-10-31T07:58:34;11.15;;;7.00;;
14789;SDS011;7486;51.010;10.366;2022-10-31T08:01:01;10.57;;;6.07;;
14789;SDS011;7486;51.010;10.366;2022-10-31T08:03:37;11.13;;;6.57;;
14789;SDS011;7486;51.010;10.366;2022-10-31T08:06:22;11.13;;;6.88;;
14789;SDS011;7486;51.010;10.366;2022-10-31T08:09:07;9.18;;;6.45;;
14789;SDS011;7486;51.010;10.366;2022-10-31T08:11:34;12.77;;;6.55;;
14789;SDS011;7486;51.010;10.366;2022-10-31T08:14:07;10.65;;;6.70;;
14789;SDS011;7486;51.010;10.366;2022-10-31T08:16:38;9.77;;;6.22;;
14789;SDS011;7486;51.010;10.366;2022-10-31T08:19:09;7.55;;;5.95;;
14789;SDS011;7486;51.010;10.366;2022-10-31T08:21:37;10.02;;;6.43;;
14789;SDS011;7486;51.010;10.366;2022-10-31T08:24:07;7.97;;;5.30;;
14789;SDS011;7486;51.010;10.366;2022-10-31T08:26:34;8.75;;;5.78;;
14789;SDS011;7486;51.010;10.366;2022-10-31T08:29:11;8.85;;;5.57;;
14789;SDS011;7486;51.010;10.366;2022-10-31T08:31:42;7.97;;;5.38;;
14789;SDS011;7486;51.010;10.366;2022-10-31T08:34:57;12.25;;;5.80;;
14789;SDS011;7486;51.010;10.366;2022-10-31T08:37:51;8.98;;;5.55;;
14789;SDS011;7486;51.010;10.366;2022-10-31T08:40:26;9.52;;;5.72;;
14789;SDS011;7486;51.010;10.366;2022-10-31T08:42:56;7.95;;;4.95;;
14789;SDS011;7486;51.010;10.366;2022-10-31T08:45:25;9.73;;;5.57;;
14789;SDS011;7486;51.010;10.366;2022-10-31T08:47:52;7.28;;;5.10;;
14789;SDS011;7486;51.010;10.366;2022-10-31T08:50:22;10.15;;;5.00;;
14789;SDS011;7486;51.010;10.366;2022-10-31T08:52:49;7.35;;;5.20;;
14789;SDS011;7486;51.010;10.366;2022-10-31T08:55:35;8.80;;;5.00;;
14789;SDS011;7486;51.010;10.366;2022-10-31T08:58:07;9.02;;;5.38;;
14789;SDS011;7486;51.010;10.366;2022-10-31T09:00:42;8.57;;;5.20;;
14789;SDS011;7486;51.010;10.366;2022-10-31T09:03:14;13.05;;;5.50;;
14789;SDS011;7486;51.010;10.366;2022-10-31T09:05:43;9.07;;;5.57;;
14789;SDS011;7486;51.010;10.366;2022-10-31T09:08:11;9.65;;;5.78;;
14789;SDS011;7486;51.010;10.366;2022-10-31T09:10:45;9.07;;;5.72;;
14789;SDS011;7486;51.010;10.366;2022-10-31T09:13:16;9.82;;;5.65;;
14789;SDS011;7486;51.010;10.366;2022-10-31T09:16:03;8.55;;;5.55;;
14789;SDS011;7486;51.010;10.366;2022-10-31T09:18:33;10.82;;;5.40;;
14789;SDS011;7486;51.010;10.366;2022-10-31T09:21:00;9.02;;;5.18;;
14789;SDS011;7486;51.010;10.366;2022-10-31T09:23:29;8.70;;;5.70;;
14789;SDS011;7486;51.010;10.366;2022-10-31T09:25:58;9.55;;;5.35;;
14789;SDS011;7486;51.010;10.366;2022-10-31T09:29:01;8.98;;;5.60;;
14789;SDS011;7486;51.010;10.366;2022-10-31T09:31:31;11.18;;;5.50;;
14789;SDS011;7486;51.010;10.366;2022-10-31T09:34:36;8.80;;;5.72;;
14789;SDS011;7486;51.010;10.366;2022-10-31T09:37:05;10.07;;;5.05;;
14789;SDS011;7486;51.010;10.366;2022-10-31T09:39:35;10.02;;;5.47;;
14789;SDS011;7486;51.010;10.366;2022-10-31T09:45:27;7.55;;;5.43;;
14789;SDS011;7486;51.010;10.366;2022-10-31T09:52:00;7.78;;;5.80;;
14789;SDS011;7486;51.010;10.366;2022-10-31T09:54:46;11.60;;;6.05;;
14789;SDS011;7486;51.010;10.366;2022-10-31T09:57:31;9.90;;;5.60;;
14789;SDS011;7486;51.010;10.366;2022-10-31T10:00:03;9.00;;;6.30;;
14789;SDS011;7486;51.010;10.366;2022-10-31T10:03:07;13.38;;;6.63;;
14789;SDS011;7486;51.010;10.366;2022-10-31T10:06:42;15.38;;;7.40;;
14789;SDS011;7486;51.010;10.366;2022-10-31T10:09:32;12.30;;;7.68;;
14789;SDS011;7486;51.010;10.366;2022-10-31T10:12:40;11.88;;;7.32;;
14789;SDS011;7486;51.010;10.366;2022-10-31T10:18:32;12.77;;;7.72;;
14789;SDS011;7486;51.010;10.366;2022-10-31T10:26:59;10.90;;;6.50;;
14789;SDS011;7486;51.010;10.366;2022-10-31T10:32:57;10.30;;;6.68;;
14789;SDS011;7486;51.010;10.366;2022-10-31T10:35:28;13.18;;;7.32;;
14789;SDS011;7486;51.010;10.366;2022-10-31T10:38:02;10.45;;;5.95;;
14789;SDS011;7486;51.010;10.366;2022-10-31T10:40:37;11.75;;;6.63;;
14789;SDS011;7486;51.010;10.366;2022-10-31T10:45:57;11.23;;;6.68;;
14789;SDS011;7486;51.010;10.366;2022-10-31T10:51:26;13.57;;;6.88;;
14789;SDS011;7486;51.010;10.366;2022-10-31T10:57:28;12.65;;;7.20;;
14789;SDS011;7486;51.010;10.366;2022-10-31T10:59:56;12.30;;;7.47;;
14789;SDS011;7486;51.010;10.366;2022-10-31T11:02:30;12.38;;;7.22;;
14789;SDS011;7486;51.010;10.366;2022-10-31T11:04:59;9.43;;;6.47;;
14789;SDS011;7486;51.010;10.366;2022-10-31T11:07:38;13.13;;;7.15;;
14789;SDS011;7486;51.010;10.366;2022-10-31T11:10:25;9.15;;;6.18;;
14789;SDS011;7486;51.010;10.366;2022-10-31T11:16:03;10.73;;;6.65;;
14789;SDS011;7486;51.010;10.366;2022-10-31T11:18:43;10.90;;;6.55;;
14789;SDS011;7486;51.010;10.366;2022-10-31T11:21:25;10.13;;;6.40;;
14789;SDS011;7486;51.010;10.366;2022-10-31T11:27:07;12.27;;;6.28;;
14789;SDS011;7486;51.010;10.366;2022-10-31T11:29:49;10.05;;;6.25;;
14789;SDS011;7486;51.010;10.366;2022-10-31T11:32:33;11.73;;;6.53;;
14789;SDS011;7486;51.010;10.366;2022-10-31T11:35:01;8.82;;;5.90;;
14789;SDS011;7486;51.010;10.366;2022-10-31T11:37:33;12.25;;;5.95;;
14789;SDS011;7486;51.010;10.366;2022-10-31T11:40:06;10.23;;;6.00;;
14789;SDS011;7486;51.010;10.366;2022-10-31T11:42:41;13.60;;;6.53;;
14789;SDS011;7486;51.010;10.366;2022-10-31T11:45:16;13.18;;;6.30;;
14789;SDS011;7486;51.010;10.366;2022-10-31T11:47:48;11.05;;;6.50;;
14789;SDS011;7486;51.010;10.366;2022-10-31T11:50:26;11.10;;;6.22;;
14789;SDS011;7486;51.010;10.366;2022-10-31T11:53:01;11.63;;;5.57;;
14789;SDS011;7486;51.010;10.366;2022-10-31T11:55:33;9.80;;;6.03;;
14789;SDS011;7486;51.010;10.366;2022-10-31T11:58:02;13.60;;;6.25;;
14789;SDS011;7486;51.010;10.366;2022-10-31T12:00:31;10.30;;;5.60;;
14789;SDS011;7486;51.010;10.366;2022-10-31T12:03:51;8.50;;;5.85;;
14789;SDS011;7486;51.010;10.366;2022-10-31T12:06:18;7.18;;;5.18;;
14789;SDS011;7486;51.010;10.366;2022-10-31T12:08:51;12.45;;;5.25;;
14789;SDS011;7486;51.010;10.366;2022-10-31T12:17:17;9.75;;;5.80;;
14789;SDS011;7486;51.010;10.366;2022-10-31T12:30:29;9.43;;;6.13;;
14789;SDS011;7486;51.010;10.366;2022-10-31T12:39:13;10.25;;;6.18;;
14789;SDS011;7486;51.010;10.366;2022-10-31T12:50:46;9.85;;;5.97;;
14789;SDS011;7486;51.010;10.366;2022-10-31T12:53:27;12.27;;;6.30;;
14789;SDS011;7486;51.010;10.366;2022-10-31T12:56:06;8.93;;;6.28;;
14789;SDS011;7486;51.010;10.366;2022-10-31T12:58:37;9.88;;;6.53;;
14789;SDS011;7486;51.010;10.366;2022-10-31T13:01:14;10.57;;;6.60;;
14789;SDS011;7486;51.010;10.366;2022-10-31T13:03:57;14.35;;;6.53;;
14789;SDS011;7486;51.010;10.366;2022-10-31T13:06:35;12.75;;;6.50;;
14789;SDS011;7486;51.010;10.366;2022-10-31T13:09:15;10.93;;;6.78;;
14789;SDS011;7486;51.010;10.366;2022-10-31T13:11:50;11.48;;;5.97;;
14789;SDS011;7486;51.010;10.366;2022-10-31T13:14:24;11.18;;;5.85;;
14789;SDS011;7486;51.010;10.366;2022-10-31T13:16:56;9.05;;;6.35;;
14789;SDS011;7486;51.010;10.366;2022-10-31T13:19:25;8.07;;;5.78;;
14789;SDS011;7486;51.010;10.366;2022-10-31T13:22:05;9.27;;;5.68;;
14789;SDS011;7486;51.010;10.366;2022-10-31T13:27:02;10.55;;;6.10;;
14789;SDS011;7486;51.010;10.366;2022-10-31T13:30:12;9.23;;;6.07;;
14789;SDS011;7486;51.010;10.366;2022-10-31T13:32:49;12.77;;;5.95;;
14789;SDS011;7486;51.010;10.366;2022-10-31T13:46:39;8.90;;;6.13;;
14789;SDS011;7486;51.010;10.366;2022-10-31T13:54:36;10.52;;;5.68;;
14789;SDS011;7486;51.010;10.366;2022-10-31T14:00:06;9.38;;;5.57;;
14789;SDS011;7486;51.010;10.366;2022-10-31T14:02:51;9.20;;;5.65;;
14789;SDS011;7486;51.010;10.366;2022-10-31T14:05:23;9.43;;;5.78;;
14789;SDS011;7486;51.010;10.366;2022-10-31T14:07:53;9.82;;;5.97;;
14789;SDS011;7486;51.010;10.366;2022-10-31T14:10:26;6.80;;;5.32;;
14789;SDS011;7486;51.010;10.366;2022-10-31T14:13:14;12.27;;;6.25;;
14789;SDS011;7486;51.010;10.366;2022-10-31T14:15:57;10.00;;;6.00;;
14789;SDS011;7486;51.010;10.366;2022-10-31T14:18:31;9.80;;;5.70;;
14789;SDS011;7486;51.010;10.366;2022-10-31T14:20:59;14.15;;;6.15;;
14789;SDS011;7486;51.010;10.366;2022-10-31T14:28:46;12.40;;;5.95;;
14789;SDS011;7486;51.010;10.366;2022-10-31T14:34:18;11.00;;;5.32;;
14789;SDS011;7486;51.010;10.366;2022-10-31T14:44:59;10.73;;;5.18;;
14789;SDS011;7486;51.010;10.366;2022-10-31T14:47:50;12.30;;;5.57;;
14789;SDS011;7486;51.010;10.366;2022-10-31T14:50:41;8.77;;;5.55;;
14789;SDS011;7486;51.010;10.366;2022-10-31T14:53:14;10.05;;;5.82;;
14789;SDS011;7486;51.010;10.366;2022-10-31T14:55:48;10.10;;;5.78;;
14789;SDS011;7486;51.010;10.366;2022-10-31T14:58:20;8.57;;;5.50;;
14789;SDS011;7486;51.010;10.366;2022-10-31T15:00:51;9.30;;;5.75;;
14789;SDS011;7486;51.010;10.366;2022-10-31T15:03:24;10.07;;;5.80;;
14789;SDS011;7486;51.010;10.366;2022-10-31T15:06:01;10.25;;;5.50;;
14789;SDS011;7486;51.010;10.366;2022-10-31T15:08:39;6.07;;;5.18;;
14789;SDS011;7486;51.010;10.366;2022-10-31T15:11:17;10.07;;;5.13;;
14789;SDS011;7486;51.010;10.366;2022-10-31T15:13:54;8.13;;;5.28;;
14789;SDS011;7486;51.010;10.366;2022-10-31T15:16:26;10.02;;;5.32;;
14789;SDS011;7486;51.010;10.366;2022-10-31T15:19:03;9.98;;;5.90;;
14789;SDS011;7486;51.010;10.366;2022-10-31T15:21:32;9.85;;;5.50;;
14789;SDS011;7486;51.010;10.366;2022-10-31T15:24:00;9.90;;;5.80;;
14789;SDS011;7486;51.010;10.366;2022-10-31T15:26:33;10.52;;;5.82;;
14789;SDS011;7486;51.010;10.366;2022-10-31T15:29:05;8.82;;;5.57;;
14789;SDS011;7486;51.010;10.366;2022-10-31T15:31:37;13.80;;;8.10;;
14789;SDS011;7486;51.010;10.366;2022-10-31T15:34:05;13.07;;;8.25;;
14789;SDS011;7486;51.010;10.366;2022-10-31T15:36:48;61.10;;;29.40;;
14789;SDS011;7486;51.010;10.366;2022-10-31T15:39:15;15.20;;;10.23;;
14789;SDS011;7486;51.010;10.366;2022-10-31T15:41:52;7.88;;;6.00;;
14789;SDS011;7486;51.010;10.366;2022-10-31T15:44:31;8.23;;;5.55;;
14789;SDS011;7486;51.010;10.366;2022-10-31T15:47:04;9.50;;;5.95;;
14789;SDS011;7486;51.010;10.366;2022-10-31T15:52:06;10.60;;;6.03;;
14789;SDS011;7486;51.010;10.366;2022-10-31T15:54:36;9.18;;;5.82;;
14789;SDS011;7486;51.010;10.366;2022-10-31T15:57:17;7.72;;;5.45;;
14789;SDS011;7486;51.010;10.366;2022-10-31T15:59:47;7.85;;;5.60;;
14789;SDS011;7486;51.010;10.366;2022-10-31T16:02:17;11.60;;;6.18;;
14789;SDS011;7486;51.010;10.366;2022-10-31T16:04:50;13.50;;;6.97;;
14789;SDS011;7486;51.010;10.366;2022-10-31T16:07:19;9.43;;;6.40;;
14789;SDS011;7486;51.010;10.366;2022-10-31T16:09:52;9.57;;;6.10;;
14789;SDS011;7486;51.010;10.366;2022-10-31T16:12:20;8.85;;;5.78;;
14789;SDS011;7486;51.010;10.366;2022-10-31T16:14:49;7.28;;;6.13;;
14789;SDS011;7486;51.010;10.366;2022-10-31T16:17:18;15.18;;;6.60;;
14789;SDS011;7486;51.010;10.366;2022-10-31T16:19:49;10.52;;;6.00;;
14789;SDS011;7486;51.010;10.366;2022-10-31T16:22:39;8.93;;;6.82;;
14789;SDS011;7486;51.010;10.366;2022-10-31T16:25:12;10.48;;;6.55;;
14789;SDS011;7486;51.010;10.366;2022-10-31T16:27:47;10.93;;;6.90;;
14789;SDS011;7486;51.010;10.366;2022-10-31T16:30:27;11.23;;;6.88;;
14789;SDS011;7486;51.010;10.366;2022-10-31T16:32:58;12.07;;;7.60;;
14789;SDS011;7486;51.010;10.366;2022-10-31T16:38:03;12.55;;;7.28;;
14789;SDS011;7486;51.010;10.366;2022-10-31T16:40:31;13.57;;;7.80;;
14789;SDS011;7486;51.010;10.366;2022-10-31T16:42:58;11.70;;;7.40;;
14789;SDS011;7486;51.010;10.366;2022-10-31T16:45:28;12.43;;;7.60;;
14789;SDS011;7486;51.010;10.366;2022-10-31T16:48:01;10.73;;;7.82;;
14789;SDS011;7486;51.010;10.366;2022-10-31T16:50:32;11.38;;;7.28;;
14789;SDS011;7486;51.010;10.366;2022-10-31T16:52:59;14.60;;;8.90;;
14789;SDS011;7486;51.010;10.366;2022-10-31T16:55:46;12.93;;;8.45;;
14789;SDS011;7486;51.010;10.366;2022-10-31T16:58:24;12.40;;;8.32;;
14789;SDS011;7486;51.010;10.366;2022-10-31T17:00:56;11.10;;;7.78;;
14789;SDS011;7486;51.010;10.366;2022-10-31T17:03:24;12.85;;;7.40;;
14789;SDS011;7486;51.010;10.366;2022-10-31T17:05:51;12.70;;;8.10;;
14789;SDS011;7486;51.010;10.366;2022-10-31T17:08:18;14.63;;;8.20;;
14789;SDS011;7486;51.010;10.366;2022-10-31T17:10:44;11.95;;;8.80;;
14789;SDS011;7486;51.010;10.366;2022-10-31T17:13:16;11.68;;;7.95;;
14789;SDS011;7486;51.010;10.366;2022-10-31T17:15:46;13.48;;;9.50;;
14789;SDS011;7486;51.010;10.366;2022-10-31T17:18:16;15.50;;;9.90;;
14789;SDS011;7486;51.010;10.366;2022-10-31T17:20:49;15.15;;;9.98;;
14789;SDS011;7486;51.010;10.366;2022-10-31T17:23:20;16.50;;;9.93;;
14789;SDS011;7486;51.010;10.366;2022-10-31T17:25:47;14.98;;;9.70;;
14789;SDS011;7486;51.010;10.366;2022-10-31T17:28:13;12.98;;;10.02;;
14789;SDS011;7486;51.010;10.366;2022-10-31T17:30:41;15.13;;;9.93;;
14789;SDS011;7486;51.010;10.366;2022-10-31T17:33:11;16.92;;;10.68;;
14789;SDS011;7486;51.010;10.366;2022-10-31T17:35:40;18.95;;;11.82;;
14789;SDS011;7486;51.010;10.366;2022-10-31T17:38:07;18.02;;;11.70;;
14789;SDS011;7486;51.010;10.366;2022-10-31T17:40:35;19.45;;;12.02;;
14789;SDS011;7486;51.010;10.366;2022-10-31T17:43:03;16.88;;;12.20;;
14789;SDS011;7486;51.010;10.366;2022-10-31T17:45:31;19.80;;;12.32;;